Time;durP1;ratioP1;P1;durP2;ratioP2;P2;SDS_P1;SDS_P2;PMS_P1;PMS_P2;Temp;Humidity;BMP_temperature;BMP_pressure;BME280_temperature;BME280_humidity;BME280_pressure;Samples;Min_cycle;Max_cycle;Signal;HPM_P1;HPM_P2
2022/09/17 00:00:46;;;;;;;2.95;2.70;;;12.40;99.90;;;;;;5058660;28;20062;-78
2022/09/17 00:03:12;;;;;;;2.40;2.20;;;12.40;99.90;;;;;;5059377;28;20083;-78
2022/09/17 00:05:38;;;;;;;3.47;2.42;;;12.40;99.90;;;;;;5059878;28;20400;-78
2022/09/17 00:08:06;;;;;;;3.65;2.35;;;12.40;99.90;;;;;;5060243;28;20029;-77
2022/09/17 00:10:36;;;;;;;3.30;2.45;;;12.30;99.90;;;;;;5058810;28;20025;-76
2022/09/17 00:13:03;;;;;;;5.07;2.50;;;12.30;99.90;;;;;;5058102;28;20021;-78
2022/09/17 00:15:29;;;;;;;4.32;2.20;;;12.20;99.90;;;;;;5056706;28;20029;-78
2022/09/17 00:17:56;;;;;;;5.32;2.50;;;12.20;99.90;;;;;;5057494;28;20342;-77
2022/09/17 00:20:23;;;;;;;3.33;2.63;;;12.10;99.90;;;;;;5056614;28;20017;-77
2022/09/17 00:22:49;;;;;;;2.80;2.60;;;12.10;99.90;;;;;;5057157;28;20029;-77
2022/09/17 00:25:15;;;;;;;4.13;3.72;;;12.00;99.90;;;;;;5055764;28;20100;-79
2022/09/17 00:27:41;;;;;;;3.35;2.85;;;12.00;99.90;;;;;;5057419;28;20032;-78
2022/09/17 00:30:07;;;;;;;3.50;2.60;;;12.00;99.90;;;;;;5055689;28;20112;-77
2022/09/17 00:32:33;;;;;;;5.43;2.40;;;12.00;99.90;;;;;;5057474;28;20029;-77
2022/09/17 00:34:58;;;;;;;6.82;2.65;;;12.10;99.90;;;;;;5056306;28;20033;-77
2022/09/17 00:37:24;;;;;;;2.88;2.33;;;12.00;99.90;;;;;;5057074;28;20037;-77
2022/09/17 00:39:50;;;;;;;5.57;2.60;;;12.00;99.90;;;;;;5055778;28;20032;-77
2022/09/17 00:42:17;;;;;;;3.63;2.60;;;12.00;99.90;;;;;;5057332;28;20051;-78
2022/09/17 00:44:52;;;;;;;3.03;2.05;;;12.00;99.90;;;;;;5056558;28;20033;-77
2022/09/17 00:47:32;;;;;;;2.83;2.08;;;12.00;99.90;;;;;;5055288;28;20025;-78
2022/09/17 00:50:03;;;;;;;4.57;2.58;;;12.10;99.90;;;;;;5055388;28;20021;-77
2022/09/17 00:52:36;;;;;;;3.03;2.50;;;12.00;99.90;;;;;;5056532;28;20021;-77
2022/09/17 00:55:23;;;;;;;5.72;2.63;;;12.00;99.90;;;;;;5055528;28;20115;-77
2022/09/17 00:57:53;;;;;;;3.15;2.30;;;12.10;99.90;;;;;;5054312;28;20029;-78
2022/09/17 01:00:19;;;;;;;3.17;2.47;;;12.10;99.90;;;;;;5056346;28;20025;-77
2022/09/17 01:02:46;;;;;;;3.25;2.67;;;12.10;99.90;;;;;;5056012;28;20499;-77
2022/09/17 01:05:12;;;;;;;3.47;2.42;;;12.10;99.90;;;;;;5056628;28;20053;-77
2022/09/17 01:07:59;;;;;;;3.05;2.50;;;12.10;99.90;;;;;;5054661;28;20025;-77
2022/09/17 01:10:43;;;;;;;2.70;2.40;;;12.10;99.90;;;;;;5055232;28;20370;-78
2022/09/17 01:13:20;;;;;;;4.53;2.65;;;12.10;99.90;;;;;;5055614;28;20037;-78
2022/09/17 01:16:23;;;;;;;5.75;2.72;;;12.10;99.90;;;;;;5054997;28;20025;-77
2022/09/17 01:18:49;;;;;;;5.57;3.22;;;12.20;99.90;;;;;;5044630;28;20037;-77
2022/09/17 01:21:28;;;;;;;3.63;2.20;;;12.20;99.90;;;;;;5054356;28;20548;-77
2022/09/17 01:24:18;;;;;;;4.03;2.13;;;12.20;99.90;;;;;;5054338;28;20123;-78
2022/09/17 01:27:03;;;;;;;2.60;2.33;;;12.10;99.90;;;;;;5055341;28;20021;-77
2022/09/17 01:29:47;;;;;;;3.03;2.28;;;12.10;99.90;;;;;;5040073;28;20125;-77
2022/09/17 01:32:25;;;;;;;2.70;2.50;;;12.10;99.90;;;;;;5054240;28;20028;-78
2022/09/17 01:35:15;;;;;;;4.90;2.58;;;12.00;99.90;;;;;;5054346;28;20029;-77
2022/09/17 01:37:52;;;;;;;3.22;2.38;;;12.00;99.90;;;;;;5054105;28;20086;-77
2022/09/17 01:40:26;;;;;;;2.65;2.25;;;12.00;99.90;;;;;;5054255;28;20029;-77
2022/09/17 01:43:05;;;;;;;4.20;2.83;;;11.90;99.90;;;;;;5055253;28;20060;-77
2022/09/17 01:45:49;;;;;;;5.25;2.97;;;11.90;99.90;;;;;;5054212;28;20482;-77
2022/09/17 01:48:22;;;;;;;3.63;2.92;;;11.80;99.90;;;;;;5054935;28;20086;-77
2022/09/17 01:51:05;;;;;;;4.78;3.70;;;11.80;99.90;;;;;;5055290;28;20033;-77
2022/09/17 01:53:42;;;;;;;3.95;3.03;;;11.80;99.90;;;;;;5053901;28;20052;-77
2022/09/17 01:56:11;;;;;;;5.25;3.28;;;11.80;99.90;;;;;;5053901;28;20025;-77
2022/09/17 01:58:47;;;;;;;3.25;3.05;;;11.80;99.90;;;;;;5053731;28;20033;-77
2022/09/17 02:01:16;;;;;;;3.97;3.10;;;11.80;99.90;;;;;;5054014;28;20029;-77
2022/09/17 02:03:59;;;;;;;3.72;3.42;;;11.70;99.90;;;;;;5053765;28;20135;-77
2022/09/17 02:06:31;;;;;;;6.10;3.38;;;11.60;99.90;;;;;;5054788;28;20040;-77
2022/09/17 02:09:01;;;;;;;3.95;3.30;;;11.60;99.90;;;;;;5052335;28;20036;-77
2022/09/17 02:11:27;;;;;;;6.55;3.85;;;11.60;99.90;;;;;;5055214;28;20100;-77
2022/09/17 02:14:04;;;;;;;5.95;3.53;;;11.60;99.90;;;;;;5054924;28;20036;-77
2022/09/17 02:16:32;;;;;;;5.22;3.70;;;11.60;99.90;;;;;;5053570;28;20115;-78
2022/09/17 02:19:11;;;;;;;7.57;3.70;;;11.50;99.90;;;;;;5054580;28;20489;-77
2022/09/17 02:21:47;;;;;;;6.95;3.75;;;11.50;99.90;;;;;;5053299;28;20539;-77
2022/09/17 02:24:38;;;;;;;6.43;3.40;;;11.50;99.90;;;;;;5054182;28;20056;-77
2022/09/17 02:27:20;;;;;;;6.38;3.50;;;11.50;99.90;;;;;;5054111;28;20094;-77
2022/09/17 02:29:46;;;;;;;5.20;3.53;;;11.50;99.90;;;;;;5053129;28;20029;-77
2022/09/17 02:32:12;;;;;;;5.68;3.33;;;11.50;99.90;;;;;;5054305;28;20032;-77
2022/09/17 02:34:38;;;;;;;5.47;3.40;;;11.40;99.90;;;;;;5054015;28;20025;-77
2022/09/17 02:37:05;;;;;;;5.40;3.47;;;11.40;99.90;;;;;;5053813;28;20029;-77
2022/09/17 02:39:32;;;;;;;5.50;3.85;;;11.40;99.90;;;;;;5054794;28;20033;-77
2022/09/17 02:42:12;;;;;;;6.45;3.63;;;11.50;99.90;;;;;;5052903;28;20029;-77
2022/09/17 02:44:59;;;;;;;5.55;3.30;;;11.50;99.90;;;;;;5054144;28;20115;-77
2022/09/17 02:47:33;;;;;;;4.85;3.92;;;11.60;99.90;;;;;;5053867;28;20033;-77
2022/09/17 02:50:17;;;;;;;5.65;3.20;;;11.60;99.90;;;;;;5054067;28;20036;-78
2022/09/17 02:53:04;;;;;;;4.68;3.03;;;11.60;99.90;;;;;;5054249;28;20032;-77
2022/09/17 02:55:49;;;;;;;3.20;2.90;;;11.60;99.90;;;;;;5052886;28;20082;-77
2022/09/17 02:58:49;;;;;;;4.53;3.17;;;11.60;99.90;;;;;;5054003;28;20017;-77
2022/09/17 03:01:32;;;;;;;3.90;3.00;;;11.50;99.90;;;;;;5050763;28;20043;-77
2022/09/17 03:04:00;;;;;;;4.10;3.40;;;11.50;99.90;;;;;;5052319;28;20571;-77
2022/09/17 03:06:26;;;;;;;4.75;3.80;;;11.50;99.90;;;;;;5053866;28;20079;-77
2022/09/17 03:08:52;;;;;;;8.13;3.75;;;11.60;99.90;;;;;;5052921;28;20377;-77
2022/09/17 03:11:17;;;;;;;5.88;3.58;;;11.60;99.90;;;;;;5052570;28;20029;-77
2022/09/17 03:13:43;;;;;;;8.75;3.60;;;11.70;99.90;;;;;;5054181;28;20108;-77
2022/09/17 03:16:09;;;;;;;7.93;3.60;;;11.70;99.90;;;;;;5053749;28;20108;-77
2022/09/17 03:18:35;;;;;;;4.07;3.50;;;11.60;99.90;;;;;;5052436;28;20043;-77
2022/09/17 03:21:00;;;;;;;4.00;3.30;;;11.70;99.90;;;;;;5055955;28;20516;-78
2022/09/17 03:23:26;;;;;;;3.60;3.20;;;11.70;99.90;;;;;;5056528;28;20029;-77
2022/09/17 03:25:54;;;;;;;4.95;3.90;;;11.70;99.90;;;;;;5056671;28;20025;-77
2022/09/17 03:28:19;;;;;;;7.07;3.55;;;11.70;99.90;;;;;;5057543;28;20028;-77
2022/09/17 03:30:46;;;;;;;4.15;2.88;;;11.60;99.90;;;;;;5056449;28;20028;-78
2022/09/17 03:33:12;;;;;;;6.57;4.05;;;11.70;99.90;;;;;;5057678;28;20086;-78
2022/09/17 03:35:41;;;;;;;6.50;3.28;;;11.70;99.90;;;;;;5057578;28;20023;-78
2022/09/17 03:38:06;;;;;;;7.05;3.55;;;11.70;99.90;;;;;;5056348;28;20025;-78
2022/09/17 03:40:32;;;;;;;4.53;3.78;;;11.70;99.90;;;;;;5056735;28;20044;-78
2022/09/17 03:42:58;;;;;;;6.55;3.83;;;11.70;99.90;;;;;;5057365;28;20029;-77
2022/09/17 03:45:23;;;;;;;6.63;3.92;;;11.70;99.90;;;;;;5056312;28;20492;-77
2022/09/17 03:47:49;;;;;;;5.70;3.33;;;11.70;99.90;;;;;;5056175;28;20119;-77
2022/09/17 03:50:14;;;;;;;6.00;3.67;;;11.70;99.90;;;;;;5057745;28;20025;-77
2022/09/17 03:52:42;;;;;;;5.07;3.65;;;11.70;99.90;;;;;;5056085;28;20025;-77
2022/09/17 03:55:08;;;;;;;7.38;3.75;;;11.70;99.90;;;;;;5056364;28;20415;-78
2022/09/17 03:57:33;;;;;;;7.05;3.75;;;11.70;99.90;;;;;;5055855;28;20021;-78
2022/09/17 03:59:59;;;;;;;8.63;3.70;;;11.70;99.90;;;;;;5056056;28;20025;-77
2022/09/17 04:02:25;;;;;;;6.55;3.20;;;11.60;99.90;;;;;;5056246;28;20048;-77
2022/09/17 04:04:51;;;;;;;5.28;4.30;;;11.70;99.90;;;;;;5055829;28;20059;-77
2022/09/17 04:07:17;;;;;;;3.63;3.15;;;11.60;99.90;;;;;;5057183;28;20191;-77
2022/09/17 04:09:43;;;;;;;6.22;3.78;;;11.60;99.90;;;;;;5057137;28;20056;-77
2022/09/17 04:12:08;;;;;;;7.05;3.67;;;11.60;99.90;;;;;;5056674;28;20158;-77
2022/09/17 04:14:34;;;;;;;6.53;3.40;;;11.60;99.90;;;;;;5055649;28;20064;-77
2022/09/17 04:17:00;;;;;;;5.95;3.70;;;11.60;99.90;;;;;;5055660;28;20025;-76
2022/09/17 04:19:25;;;;;;;4.80;3.80;;;11.60;99.90;;;;;;5056566;28;20029;-77
2022/09/17 04:21:51;;;;;;;6.25;4.07;;;11.60;99.90;;;;;;5055835;28;20021;-77
2022/09/17 04:24:18;;;;;;;7.15;4.47;;;11.60;99.90;;;;;;5056482;28;20029;-77
2022/09/17 04:26:43;;;;;;;6.72;4.07;;;11.60;99.90;;;;;;5056220;28;20029;-77
2022/09/17 04:29:09;;;;;;;12.45;4.53;;;11.60;99.90;;;;;;5055522;28;20036;-77
2022/09/17 04:31:35;;;;;;;5.75;4.68;;;11.60;99.90;;;;;;5056030;28;20420;-77
2022/09/17 04:34:00;;;;;;;7.18;4.72;;;11.60;99.90;;;;;;5056324;28;20035;-77
2022/09/17 04:36:26;;;;;;;4.95;4.03;;;11.60;99.90;;;;;;5055123;28;20025;-77
2022/09/17 04:38:52;;;;;;;7.45;4.20;;;11.60;99.90;;;;;;5055398;28;20025;-77
2022/09/17 04:41:18;;;;;;;5.18;4.60;;;11.60;99.90;;;;;;5055221;28;20424;-77
2022/09/17 04:43:44;;;;;;;7.13;4.60;;;11.60;99.90;;;;;;5055172;28;20122;-77
2022/09/17 04:46:10;;;;;;;5.22;4.63;;;11.60;99.90;;;;;;5054979;28;20032;-78
2022/09/17 04:48:36;;;;;;;6.07;4.85;;;11.60;99.90;;;;;;5054998;28;20025;-77
2022/09/17 04:51:01;;;;;;;9.88;4.40;;;11.60;99.90;;;;;;5056543;28;20558;-77
2022/09/17 04:53:27;;;;;;;5.35;4.40;;;11.60;99.90;;;;;;5054984;28;20119;-77
2022/09/17 04:55:53;;;;;;;6.75;4.45;;;11.70;99.90;;;;;;5054936;28;20121;-78
2022/09/17 04:58:18;;;;;;;6.65;4.68;;;11.70;99.90;;;;;;5054978;28;20166;-78
2022/09/17 05:00:44;;;;;;;7.28;5.00;;;11.70;99.90;;;;;;5054933;28;20144;-77
2022/09/17 05:03:09;;;;;;;8.88;4.70;;;11.60;99.90;;;;;;5055849;28;20528;-77
2022/09/17 05:05:35;;;;;;;6.30;4.78;;;11.70;99.90;;;;;;5056177;28;20025;-77
2022/09/17 05:08:01;;;;;;;5.30;4.80;;;11.70;99.90;;;;;;5055250;28;20369;-77
2022/09/17 05:10:27;;;;;;;8.48;4.72;;;11.70;99.90;;;;;;5055129;28;20056;-78
2022/09/17 05:12:54;;;;;;;5.88;4.10;;;11.80;99.90;;;;;;5054947;28;20056;-77
2022/09/17 05:15:22;;;;;;;6.90;4.93;;;11.70;99.90;;;;;;5054971;28;20377;-77
2022/09/17 05:17:47;;;;;;;5.78;4.57;;;11.80;99.90;;;;;;5055120;28;20025;-77
2022/09/17 05:20:14;;;;;;;6.00;4.00;;;11.80;99.90;;;;;;5058216;28;20028;-79
2022/09/17 05:22:45;;;;;;;7.57;4.10;;;11.80;99.90;;;;;;5061282;28;20075;-78
2022/09/17 05:25:12;;;;;;;8.18;4.60;;;11.90;99.90;;;;;;5060449;28;20036;-79
2022/09/17 05:27:38;;;;;;;4.38;3.97;;;11.90;99.90;;;;;;5061825;28;20449;-74
2022/09/17 05:30:05;;;;;;;4.70;4.10;;;11.90;99.90;;;;;;5060075;28;20074;-74
2022/09/17 05:32:31;;;;;;;5.32;3.95;;;11.90;99.90;;;;;;5058156;28;20075;-76
2022/09/17 05:34:56;;;;;;;4.10;3.72;;;12.00;99.90;;;;;;5057461;28;20029;-74
2022/09/17 05:37:22;;;;;;;7.03;3.95;;;11.90;99.90;;;;;;5059618;28;20419;-76
2022/09/17 05:39:48;;;;;;;4.10;3.70;;;11.90;99.90;;;;;;5058656;28;20082;-75
2022/09/17 05:42:13;;;;;;;4.97;3.33;;;12.00;99.90;;;;;;5058151;28;20074;-74
2022/09/17 05:44:39;;;;;;;6.55;3.00;;;12.00;99.90;;;;;;5057397;28;20484;-74
2022/09/17 05:47:05;;;;;;;6.38;3.45;;;12.00;99.90;;;;;;5058287;28;20036;-72
2022/09/17 05:49:30;;;;;;;6.88;3.70;;;12.00;99.90;;;;;;5056595;28;20024;-74
2022/09/17 05:51:56;;;;;;;3.65;3.35;;;12.00;99.90;;;;;;5056128;28;20051;-73
2022/09/17 05:54:22;;;;;;;4.25;3.80;;;12.10;99.90;;;;;;5056486;28;20025;-72
2022/09/17 05:56:51;;;;;;;3.42;3.13;;;12.10;99.90;;;;;;5055358;28;20063;-57
2022/09/17 05:59:16;;;;;;;3.33;3.03;;;12.30;99.90;;;;;;5054945;28;20021;-57
2022/09/17 06:01:43;;;;;;;4.20;2.75;;;12.50;99.90;;;;;;5054596;28;20029;-68
2022/09/17 06:04:09;;;;;;;3.83;2.95;;;12.60;99.90;;;;;;5053044;28;20147;-68
2022/09/17 06:06:36;;;;;;;3.60;2.50;;;12.50;99.90;;;;;;5053564;28;20190;-63
2022/09/17 06:09:02;;;;;;;6.35;2.67;;;12.50;99.90;;;;;;5054729;28;20111;-74
2022/09/17 06:11:28;;;;;;;5.15;2.60;;;12.50;99.90;;;;;;5053432;28;20106;-69
2022/09/17 06:13:54;;;;;;;4.65;2.78;;;12.60;99.90;;;;;;5053780;28;20447;-67
2022/09/17 06:16:21;;;;;;;2.88;2.60;;;12.60;99.90;;;;;;5053655;28;20416;-67
2022/09/17 06:18:49;;;;;;;5.70;2.47;;;12.80;99.90;;;;;;5054872;28;20056;-73
2022/09/17 06:21:16;;;;;;;4.63;2.30;;;12.70;99.90;;;;;;5053847;28;20060;-74
2022/09/17 06:23:42;;;;;;;4.30;2.72;;;12.60;99.90;;;;;;5055386;28;20481;-73
2022/09/17 06:26:08;;;;;;;3.03;2.75;;;12.50;99.90;;;;;;5054897;28;20021;-73
2022/09/17 06:28:35;;;;;;;2.72;2.47;;;12.50;99.90;;;;;;5054949;28;20025;-74
2022/09/17 06:31:02;;;;;;;3.22;2.92;;;12.50;99.90;;;;;;5054706;28;20029;-73
2022/09/17 06:33:29;;;;;;;2.80;2.15;;;12.40;99.90;;;;;;5053193;28;20040;-73
2022/09/17 06:36:00;;;;;;;2.88;2.10;;;12.50;99.90;;;;;;5053174;28;20025;-74
2022/09/17 06:38:31;;;;;;;5.63;2.45;;;12.50;99.90;;;;;;5054509;28;20017;-73
2022/09/17 06:40:57;;;;;;;3.63;2.33;;;12.40;99.90;;;;;;5054204;28;20032;-73
2022/09/17 06:43:23;;;;;;;2.40;2.08;;;12.40;99.90;;;;;;5054160;28;20568;-74
2022/09/17 06:45:52;;;;;;;3.28;2.03;;;12.40;99.90;;;;;;5054696;28;20123;-73
2022/09/17 06:48:18;;;;;;;2.90;1.90;;;12.40;99.90;;;;;;5053214;28;20075;-74
2022/09/17 06:50:44;;;;;;;2.50;2.30;;;12.40;99.90;;;;;;5053141;28;20033;-73
2022/09/17 06:53:09;;;;;;;3.00;1.92;;;12.50;99.90;;;;;;5052745;28;20040;-73
2022/09/17 06:55:35;;;;;;;2.72;2.53;;;12.50;99.90;;;;;;5052755;28;20029;-73
2022/09/17 06:58:00;;;;;;;3.40;2.33;;;12.40;99.90;;;;;;5053077;28;20025;-73
2022/09/17 07:00:26;;;;;;;4.35;2.95;;;12.40;99.90;;;;;;5053037;28;20473;-73
2022/09/17 07:02:57;;;;;;;3.15;2.85;;;12.40;99.90;;;;;;5053105;28;20031;-73
2022/09/17 07:05:23;;;;;;;4.32;3.80;;;12.40;99.90;;;;;;5054769;28;20052;-74
2022/09/17 07:07:49;;;;;;;3.17;2.97;;;12.40;99.90;;;;;;5054470;28;20040;-73
2022/09/17 07:10:15;;;;;;;3.33;3.03;;;12.40;99.90;;;;;;5052958;28;20023;-74
2022/09/17 07:12:41;;;;;;;4.38;3.15;;;12.40;99.90;;;;;;5052103;28;20388;-74
2022/09/17 07:15:10;;;;;;;3.55;2.95;;;12.50;99.90;;;;;;5052237;28;20532;-74
2022/09/17 07:17:39;;;;;;;6.88;3.03;;;12.50;99.90;;;;;;5051548;28;20029;-74
2022/09/17 07:20:06;;;;;;;3.35;3.05;;;12.60;99.90;;;;;;5046482;28;20033;-74
2022/09/17 07:22:32;;;;;;;4.47;3.33;;;12.60;99.90;;;;;;5053762;28;20108;-74
2022/09/17 07:24:58;;;;;;;3.40;3.10;;;12.60;99.90;;;;;;5053773;28;20076;-73
2022/09/17 07:27:27;;;;;;;5.35;3.33;;;12.50;99.90;;;;;;5054086;28;20025;-73
2022/09/17 07:29:53;;;;;;;;;;;12.50;99.90;;;;;;5054225;28;20488;-73
2022/09/17 07:32:19;;;;;;;7.90;3.15;;;12.50;99.90;;;;;;5053902;28;19909;-73
2022/09/17 07:34:44;;;;;;;3.35;3.00;;;12.50;99.90;;;;;;5052628;28;20059;-74
2022/09/17 07:37:10;;;;;;;3.90;3.30;;;12.50;99.90;;;;;;5054260;28;20036;-73
2022/09/17 07:39:36;;;;;;;4.50;3.10;;;12.50;99.90;;;;;;5053571;28;20032;-73
2022/09/17 07:42:03;;;;;;;3.08;2.55;;;12.40;99.90;;;;;;5052730;28;20025;-73
2022/09/17 07:44:29;;;;;;;3.45;3.15;;;12.50;99.90;;;;;;5052509;28;20551;-74
2022/09/17 07:46:55;;;;;;;6.07;3.28;;;12.50;99.90;;;;;;5053776;28;20032;-73
2022/09/17 07:49:20;;;;;;;5.00;3.20;;;12.50;99.90;;;;;;5052381;28;20034;-73
2022/09/17 07:51:46;;;;;;;3.28;2.97;;;12.50;99.90;;;;;;5053749;28;20029;-73
2022/09/17 07:54:12;;;;;;;3.08;2.58;;;12.60;99.90;;;;;;5052349;28;20120;-74
2022/09/17 07:56:38;;;;;;;3.45;2.40;;;12.60;99.90;;;;;;5053611;28;20068;-74
2022/09/17 07:59:04;;;;;;;3.10;2.70;;;12.60;99.90;;;;;;5053923;28;20039;-74
2022/09/17 08:01:32;;;;;;;2.58;2.38;;;12.60;99.90;;;;;;5053186;28;20061;-74
2022/09/17 08:03:58;;;;;;;6.05;2.45;;;12.70;99.90;;;;;;5053209;28;20098;-74
2022/09/17 08:06:26;;;;;;;2.92;1.95;;;12.80;99.90;;;;;;5054070;28;20092;-74
2022/09/17 08:08:56;;;;;;;3.05;2.30;;;12.80;99.90;;;;;;5057215;28;20018;-73
2022/09/17 08:11:24;;;;;;;3.13;1.92;;;12.80;99.90;;;;;;5055900;28;20025;-73
2022/09/17 08:13:52;;;;;;;2.50;2.00;;;12.80;99.90;;;;;;5056985;28;20029;-73
2022/09/17 08:16:18;;;;;;;2.28;1.67;;;12.80;99.90;;;;;;5057728;28;20048;-74
2022/09/17 08:18:45;;;;;;;1.85;1.50;;;12.90;99.90;;;;;;5057696;28;20469;-74
2022/09/17 08:21:16;;;;;;;1.55;1.40;;;12.90;99.90;;;;;;5058046;28;20108;-73
2022/09/17 08:23:43;;;;;;;6.95;1.23;;;13.00;99.90;;;;;;5057713;28;20037;-74
2022/09/17 08:26:17;;;;;;;3.08;1.70;;;13.00;99.90;;;;;;5058049;28;20028;-73
2022/09/17 08:28:55;;;;;;;2.58;1.80;;;13.00;99.90;;;;;;5055945;28;20057;-74
2022/09/17 08:31:22;;;;;;;2.30;0.95;;;13.00;99.90;;;;;;5056417;28;20461;-74
2022/09/17 08:33:48;;;;;;;2.60;1.30;;;13.00;99.90;;;;;;5057229;28;20527;-73
2022/09/17 08:36:15;;;;;;;1.55;1.20;;;13.00;99.90;;;;;;5055912;28;20020;-73
2022/09/17 08:38:41;;;;;;;1.40;1.23;;;13.00;99.90;;;;;;5057023;28;20029;-73
2022/09/17 08:41:10;;;;;;;2.92;0.85;;;12.90;99.90;;;;;;5055757;28;20028;-73
2022/09/17 08:43:36;;;;;;;;;;;12.90;99.90;;;;;;5057420;28;20029;-73
2022/09/17 08:46:02;;;;;;;0.80;0.80;;;12.80;99.90;;;;;;5056618;28;19927;-73
2022/09/17 08:48:46;;;;;;;1.80;1.00;;;12.80;99.90;;;;;;5056735;28;20028;-73
2022/09/17 08:51:40;;;;;;;5.57;1.10;;;12.80;99.90;;;;;;5055661;28;20424;-73
2022/09/17 08:54:16;;;;;;;1.88;0.93;;;12.80;99.90;;;;;;5056884;28;20354;-73
2022/09/17 08:56:44;;;;;;;2.33;0.65;;;12.80;99.90;;;;;;5056159;28;20025;-73
2022/09/17 08:59:10;;;;;;;0.95;0.95;;;12.80;99.90;;;;;;5055522;28;20032;-73
2022/09/17 09:01:38;;;;;;;1.85;0.90;;;12.80;99.90;;;;;;5056700;28;20025;-73
2022/09/17 09:04:50;;;;;;;3.38;1.20;;;12.70;99.90;;;;;;5054810;28;20045;-73
2022/09/17 09:07:25;;;;;;;2.65;1.00;;;12.70;99.90;;;;;;5017839;28;20473;-73
2022/09/17 09:10:13;;;;;;;3.45;1.23;;;12.70;99.90;;;;;;5017424;28;20029;-73
2022/09/17 09:12:40;;;;;;;2.50;1.30;;;12.70;99.90;;;;;;5038660;28;20040;-73
2022/09/17 09:15:26;;;;;;;3.50;1.10;;;12.70;99.90;;;;;;5054582;28;20033;-73
2022/09/17 09:17:52;;;;;;;1.95;1.08;;;12.70;99.90;;;;;;5054519;28;20063;-73
2022/09/17 09:20:32;;;;;;;1.85;0.90;;;12.70;99.90;;;;;;5056715;28;20025;-73
2022/09/17 09:23:14;;;;;;;2.22;1.10;;;12.80;99.90;;;;;;5056501;28;20040;-74
2022/09/17 09:25:52;;;;;;;0.88;0.85;;;12.80;99.90;;;;;;5055108;28;20037;-73
2022/09/17 09:28:35;;;;;;;0.85;0.57;;;12.80;99.90;;;;;;5055459;28;20083;-73
2022/09/17 09:31:20;;;;;;;4.10;1.30;;;12.80;99.90;;;;;;5056446;28;20053;-73
2022/09/17 09:33:47;;;;;;;3.88;1.20;;;12.90;99.90;;;;;;5055838;28;20377;-73
2022/09/17 09:36:14;;;;;;;3.25;0.77;;;12.90;99.90;;;;;;5054635;28;20431;-73
2022/09/17 09:38:56;;;;;;;3.03;1.00;;;12.90;99.90;;;;;;5054890;28;20036;-73
2022/09/17 09:41:35;;;;;;;2.03;0.90;;;12.80;99.90;;;;;;5054563;28;20025;-73
2022/09/17 09:44:08;;;;;;;3.75;0.82;;;12.80;99.90;;;;;;5054668;28;20037;-73
2022/09/17 09:46:58;;;;;;;1.85;1.05;;;12.80;99.90;;;;;;5054803;28;20059;-73
2022/09/17 09:49:53;;;;;;;3.28;1.55;;;12.80;99.90;;;;;;5054659;28;20130;-73
2022/09/17 09:52:18;;;;;;;3.13;1.00;;;12.70;99.90;;;;;;5040602;28;20060;-73
2022/09/17 09:55:02;;;;;;;4.65;0.93;;;12.60;99.90;;;;;;5055621;28;20377;-73
2022/09/17 09:57:38;;;;;;;4.60;1.10;;;12.70;99.90;;;;;;5055122;28;20025;-73
2022/09/17 10:00:31;;;;;;;2.05;0.80;;;12.70;99.90;;;;;;5055200;28;20437;-73
2022/09/17 10:03:02;;;;;;;2.65;0.70;;;12.70;99.90;;;;;;5055852;28;20057;-73
2022/09/17 10:05:28;;;;;;;2.58;0.60;;;12.70;99.90;;;;;;5055958;28;20033;-73
2022/09/17 10:07:54;;;;;;;4.50;1.10;;;12.70;99.90;;;;;;5056924;28;20051;-73
2022/09/17 10:10:20;;;;;;;1.10;0.85;;;12.70;99.90;;;;;;5056305;28;20054;-73
2022/09/17 10:12:46;;;;;;;2.67;0.80;;;12.80;99.90;;;;;;5058396;28;20104;-73
2022/09/17 10:15:24;;;;;;;1.48;0.90;;;12.80;99.90;;;;;;5058850;28;20036;-73
2022/09/17 10:18:23;;;;;;;2.83;0.93;;;12.70;99.90;;;;;;5058288;28;20021;-74
2022/09/17 10:20:58;;;;;;;4.85;1.73;;;12.70;99.90;;;;;;5058089;28;20037;-75
2022/09/17 10:23:26;;;;;;;3.90;1.05;;;12.70;99.90;;;;;;5059338;28;20032;-74
2022/09/17 10:25:54;;;;;;;1.43;1.10;;;12.70;99.90;;;;;;5059821;28;20021;-73
2022/09/17 10:28:43;;;;;;;3.63;1.05;;;12.70;99.90;;;;;;5058639;28;20520;-73
2022/09/17 10:31:11;;;;;;;3.25;0.90;;;12.70;99.90;;;;;;5053639;28;20083;-73
2022/09/17 10:33:45;;;;;;;2.10;1.15;;;12.70;99.90;;;;;;5055133;28;20040;-73
2022/09/17 10:36:13;;;;;;;2.17;1.23;;;12.80;99.90;;;;;;5055027;28;20078;-73
2022/09/17 10:38:41;;;;;;;3.20;1.13;;;12.80;99.90;;;;;;5054776;28;20471;-73
2022/09/17 10:41:20;;;;;;;1.10;0.90;;;12.70;99.90;;;;;;5054842;28;20485;-73
2022/09/17 10:43:47;;;;;;;3.78;1.00;;;12.70;99.90;;;;;;5055066;28;20110;-73
2022/09/17 10:46:24;;;;;;;1.33;0.80;;;12.70;99.90;;;;;;5053273;28;20025;-73
2022/09/17 10:49:24;;;;;;;3.38;1.17;;;12.80;99.90;;;;;;5054328;28;20549;-73
2022/09/17 10:51:50;;;;;;;3.97;1.02;;;12.80;99.90;;;;;;5050738;28;20068;-73
2022/09/17 10:54:16;;;;;;;7.10;0.80;;;12.80;99.90;;;;;;5055091;28;20086;-73
2022/09/17 10:56:50;;;;;;;4.10;1.30;;;12.90;99.90;;;;;;5057093;28;20381;-73
2022/09/17 10:59:36;;;;;;;3.00;0.98;;;12.90;99.90;;;;;;5058630;28;20017;-74
2022/09/17 11:02:39;;;;;;;3.83;0.95;;;13.00;99.90;;;;;;5057178;28;20025;-73
2022/09/17 11:05:20;;;;;;;1.60;0.90;;;13.10;99.90;;;;;;5056731;28;20052;-73
2022/09/17 11:08:05;;;;;;;2.65;0.75;;;13.20;99.90;;;;;;5057264;28;20399;-73
2022/09/17 11:10:52;;;;;;;2.58;0.90;;;13.40;99.90;;;;;;5056357;28;20021;-73
2022/09/17 11:13:43;;;;;;;3.20;1.00;;;13.50;99.90;;;;;;5055204;28;20488;-73
2022/09/17 11:16:24;;;;;;;3.45;0.98;;;13.40;99.90;;;;;;5054689;28;20070;-73
2022/09/17 11:19:03;;;;;;;3.17;0.93;;;13.40;99.90;;;;;;5054371;28;20029;-73
2022/09/17 11:21:39;;;;;;;1.95;1.00;;;13.40;99.90;;;;;;5053411;28;20029;-72
2022/09/17 11:25:01;;;;;;;4.32;0.82;;;13.30;99.90;;;;;;5054210;28;20033;-73
2022/09/17 11:27:46;;;;;;;4.15;1.02;;;13.30;99.90;;;;;;5015406;28;20551;-72
2022/09/17 11:30:17;;;;;;;5.13;0.90;;;13.20;99.90;;;;;;5032031;28;20029;-72
2022/09/17 11:32:52;;;;;;;3.22;1.33;;;13.00;99.90;;;;;;5046326;28;20041;-73
2022/09/17 11:35:37;;;;;;;3.17;1.30;;;13.00;99.90;;;;;;5052701;28;20361;-73
2022/09/17 11:38:15;;;;;;;3.88;1.80;;;13.10;99.90;;;;;;5053589;28;20100;-72
2022/09/17 11:40:56;;;;;;;4.07;1.02;;;13.10;99.90;;;;;;5052690;28;20029;-73
2022/09/17 11:43:27;;;;;;;4.13;1.40;;;13.10;99.90;;;;;;5058256;28;20021;-72
2022/09/17 11:46:01;;;;;;;2.55;1.13;;;13.00;99.90;;;;;;5058049;28;20108;-72
2022/09/17 11:48:41;;;;;;;2.92;1.15;;;12.90;99.90;;;;;;5056482;28;20025;-72
2022/09/17 11:51:26;;;;;;;1.70;1.40;;;12.90;99.90;;;;;;5057955;28;20031;-72
2022/09/17 11:54:13;;;;;;;2.83;1.20;;;12.90;99.90;;;;;;5057573;28;20025;-72
2022/09/17 11:56:49;;;;;;;2.45;1.27;;;12.90;99.90;;;;;;5058337;28;20035;-73
2022/09/17 11:59:53;;;;;;;1.10;0.90;;;12.80;99.90;;;;;;5057506;28;20397;-72
2022/09/17 12:02:32;;;;;;;3.97;1.45;;;12.80;99.90;;;;;;5018685;28;20429;-72
2022/09/17 12:05:05;;;;;;;3.60;1.30;;;12.80;99.90;;;;;;5054802;28;20110;-72
2022/09/17 12:07:58;;;;;;;3.25;1.15;;;12.80;99.90;;;;;;5057420;28;20354;-72
2022/09/17 12:10:41;;;;;;;2.97;1.23;;;12.60;99.90;;;;;;5057253;28;20465;-72
2022/09/17 12:13:28;;;;;;;7.30;1.70;;;12.50;99.90;;;;;;5056155;28;20048;-71
2022/09/17 12:16:31;;;;;;;5.38;1.35;;;12.50;99.90;;;;;;5057195;28;20500;-72
2022/09/17 12:18:57;;;;;;;1.35;1.20;;;12.50;99.90;;;;;;5057156;28;20476;-72
2022/09/17 12:21:51;;;;;;;2.72;1.17;;;12.40;99.90;;;;;;5056760;28;20025;-72
2022/09/17 12:24:22;;;;;;;3.80;1.27;;;12.40;99.90;;;;;;5054092;28;20036;-72
2022/09/17 12:26:56;;;;;;;4.50;1.23;;;12.40;99.90;;;;;;5055652;28;20094;-72
2022/09/17 12:29:43;;;;;;;1.40;1.13;;;12.50;99.90;;;;;;5056688;28;20096;-72
2022/09/17 12:32:21;;;;;;;2.60;1.08;;;12.60;99.90;;;;;;5055482;28;20033;-72
2022/09/17 12:35:15;;;;;;;3.40;1.30;;;12.60;99.90;;;;;;5057109;28;20035;-72
2022/09/17 12:38:05;;;;;;;3.05;1.50;;;12.60;99.90;;;;;;5056771;28;20017;-72
2022/09/17 12:40:48;;;;;;;3.00;1.35;;;12.60;99.90;;;;;;5056502;28;20114;-72
2022/09/17 12:43:38;;;;;;;6.00;1.67;;;12.50;99.90;;;;;;5056887;28;20029;-72
2022/09/17 12:46:39;;;;;;;2.97;1.10;;;12.60;99.90;;;;;;5056480;28;20402;-72
2022/09/17 12:49:23;;;;;;;4.15;1.13;;;12.70;99.90;;;;;;5055343;28;20048;-72
2022/09/17 12:51:49;;;;;;;3.28;1.27;;;12.70;99.90;;;;;;5055504;28;20029;-72
2022/09/17 12:54:21;;;;;;;4.32;1.35;;;12.70;99.90;;;;;;5055381;28;20042;-72
2022/09/17 12:57:22;;;;;;;5.57;1.63;;;12.70;99.90;;;;;;5055005;28;20036;-71
2022/09/17 12:59:59;;;;;;;6.68;0.98;;;12.50;99.90;;;;;;5054911;28;20477;-72
2022/09/17 13:02:51;;;;;;;4.65;1.40;;;12.40;99.90;;;;;;5055849;28;20025;-72
2022/09/17 13:05:22;;;;;;;4.40;1.40;;;12.40;99.90;;;;;;5055750;28;20045;-72
2022/09/17 13:08:04;;;;;;;6.60;1.65;;;12.40;99.90;;;;;;5055842;28;20048;-71
2022/09/17 13:11:07;;;;;;;3.20;1.20;;;12.30;99.90;;;;;;5055862;28;20062;-72
2022/09/17 13:13:58;;;;;;;4.50;0.85;;;12.30;99.90;;;;;;5049295;28;20049;-72
2022/09/17 13:17:22;;;;;;;8.43;2.22;;;12.30;99.90;;;;;;5055341;28;20025;-72